sensor_id;sensor_type;location;lat;lon;timestamp;P1;P2;P0
55518;PMS5003;41724;51.176;-0.708;2022-07-09T00:00:11;7;5;
55518;PMS5003;41724;51.176;-0.708;2022-07-09T00:02:38;6;6;
55518;PMS5003;41724;51.176;-0.708;2022-07-09T00:05:06;6;6;
55518;PMS5003;41724;51.176;-0.708;2022-07-09T00:07:34;4;4;
55518;PMS5003;41724;51.176;-0.708;2022-07-09T00:10:01;6;6;
55518;PMS5003;41724;51.176;-0.708;2022-07-09T00:12:28;5;4;
55518;PMS5003;41724;51.176;-0.708;2022-07-09T00:14:55;6;6;
55518;PMS5003;41724;51.176;-0.708;2022-07-09T00:17:23;6;6;
55518;PMS5003;41724;51.176;-0.708;2022-07-09T00:19:51;6;6;
55518;PMS5003;41724;51.176;-0.708;2022-07-09T00:22:18;7;5;
55518;PMS5003;41724;51.176;-0.708;2022-07-09T00:24:45;6;6;
55518;PMS5003;41724;51.176;-0.708;2022-07-09T00:27:12;6;4;
55518;PMS5003;41724;51.176;-0.708;2022-07-09T00:29:40;4;4;
55518;PMS5003;41724;51.176;-0.708;2022-07-09T00:32:07;7;7;
55518;PMS5003;41724;51.176;-0.708;2022-07-09T00:34:34;6;6;
55518;PMS5003;41724;51.176;-0.708;2022-07-09T00:37:02;6;6;
55518;PMS5003;41724;51.176;-0.708;2022-07-09T00:39:29;6;6;
55518;PMS5003;41724;51.176;-0.708;2022-07-09T00:42:04;7;6;
55518;PMS5003;41724;51.176;-0.708;2022-07-09T00:44:31;7;7;
55518;PMS5003;41724;51.176;-0.708;2022-07-09T00:46:58;6;5;
55518;PMS5003;41724;51.176;-0.708;2022-07-09T00:49:27;6;6;
55518;PMS5003;41724;51.176;-0.708;2022-07-09T00:51:56;5;5;
55518;PMS5003;41724;51.176;-0.708;2022-07-09T00:54:23;4;4;
55518;PMS5003;41724;51.176;-0.708;2022-07-09T00:56:51;6;5;
55518;PMS5003;41724;51.176;-0.708;2022-07-09T00:59:19;6;6;
55518;PMS5003;41724;51.176;-0.708;2022-07-09T01:01:49;8;7;
55518;PMS5003;41724;51.176;-0.708;2022-07-09T01:04:16;7;7;
55518;PMS5003;41724;51.176;-0.708;2022-07-09T01:06:44;5;5;
55518;PMS5003;41724;51.176;-0.708;2022-07-09T01:09:11;7;6;
55518;PMS5003;41724;51.176;-0.708;2022-07-09T01:11:38;9;7;
55518;PMS5003;41724;51.176;-0.708;2022-07-09T01:14:06;9;7;
55518;PMS5003;41724;51.176;-0.708;2022-07-09T01:16:34;5;5;
55518;PMS5003;41724;51.176;-0.708;2022-07-09T01:19:02;6;6;
55518;PMS5003;41724;51.176;-0.708;2022-07-09T01:21:30;6;6;
55518;PMS5003;41724;51.176;-0.708;2022-07-09T01:23:58;6;6;
55518;PMS5003;41724;51.176;-0.708;2022-07-09T01:26:26;8;8;
55518;PMS5003;41724;51.176;-0.708;2022-07-09T01:28:54;6;6;
55518;PMS5003;41724;51.176;-0.708;2022-07-09T01:31:21;8;8;
55518;PMS5003;41724;51.176;-0.708;2022-07-09T01:33:49;8;8;
55518;PMS5003;41724;51.176;-0.708;2022-07-09T01:36:16;6;6;
55518;PMS5003;41724;51.176;-0.708;2022-07-09T01:38:43;5;5;
55518;PMS5003;41724;51.176;-0.708;2022-07-09T01:41:10;7;6;
55518;PMS5003;41724;51.176;-0.708;2022-07-09T01:43:38;6;6;
55518;PMS5003;41724;51.176;-0.708;2022-07-09T01:46:05;8;7;
55518;PMS5003;41724;51.176;-0.708;2022-07-09T01:48:33;7;7;
55518;PMS5003;41724;51.176;-0.708;2022-07-09T01:51:00;7;7;
55518;PMS5003;41724;51.176;-0.708;2022-07-09T01:53:28;10;7;
55518;PMS5003;41724;51.176;-0.708;2022-07-09T01:55:55;7;7;
55518;PMS5003;41724;51.176;-0.708;2022-07-09T01:58:22;7;7;
55518;PMS5003;41724;51.176;-0.708;2022-07-09T02:00:50;7;7;
55518;PMS5003;41724;51.176;-0.708;2022-07-09T02:03:17;6;6;
55518;PMS5003;41724;51.176;-0.708;2022-07-09T02:05:44;7;7;
55518;PMS5003;41724;51.176;-0.708;2022-07-09T02:08:11;6;6;
55518;PMS5003;41724;51.176;-0.708;2022-07-09T02:10:38;7;7;
55518;PMS5003;41724;51.176;-0.708;2022-07-09T02:13:06;6;5;
55518;PMS5003;41724;51.176;-0.708;2022-07-09T02:15:33;6;5;
55518;PMS5003;41724;51.176;-0.708;2022-07-09T02:18:00;8;8;
55518;PMS5003;41724;51.176;-0.708;2022-07-09T02:20:28;7;7;
55518;PMS5003;41724;51.176;-0.708;2022-07-09T02:22:55;7;7;
55518;PMS5003;41724;51.176;-0.708;2022-07-09T02:25:22;7;7;
55518;PMS5003;41724;51.176;-0.708;2022-07-09T02:27:50;6;6;
55518;PMS5003;41724;51.176;-0.708;2022-07-09T02:30:17;6;6;
55518;PMS5003;41724;51.176;-0.708;2022-07-09T02:32:44;7;7;
55518;PMS5003;41724;51.176;-0.708;2022-07-09T02:35:12;6;6;
55518;PMS5003;41724;51.176;-0.708;2022-07-09T02:37:39;6;6;
55518;PMS5003;41724;51.176;-0.708;2022-07-09T02:40:07;6;6;
55518;PMS5003;41724;51.176;-0.708;2022-07-09T02:42:34;7;7;
55518;PMS5003;41724;51.176;-0.708;2022-07-09T02:45:02;7;7;
55518;PMS5003;41724;51.176;-0.708;2022-07-09T02:47:29;7;7;
55518;PMS5003;41724;51.176;-0.708;2022-07-09T02:49:56;5;5;
55518;PMS5003;41724;51.176;-0.708;2022-07-09T02:52:23;6;6;
55518;PMS5003;41724;51.176;-0.708;2022-07-09T02:54:51;6;6;
55518;PMS5003;41724;51.176;-0.708;2022-07-09T02:57:18;6;5;
55518;PMS5003;41724;51.176;-0.708;2022-07-09T02:59:45;7;7;
55518;PMS5003;41724;51.176;-0.708;2022-07-09T03:02:13;7;6;
55518;PMS5003;41724;51.176;-0.708;2022-07-09T03:04:40;5;5;
55518;PMS5003;41724;51.176;-0.708;2022-07-09T03:07:07;7;6;
55518;PMS5003;41724;51.176;-0.708;2022-07-09T03:09:35;6;5;
55518;PMS5003;41724;51.176;-0.708;2022-07-09T03:12:02;4;4;
55518;PMS5003;41724;51.176;-0.708;2022-07-09T03:14:30;6;5;
55518;PMS5003;41724;51.176;-0.708;2022-07-09T03:16:57;6;6;
55518;PMS5003;41724;51.176;-0.708;2022-07-09T03:19:25;7;7;
55518;PMS5003;41724;51.176;-0.708;2022-07-09T03:21:52;7;5;
55518;PMS5003;41724;51.176;-0.708;2022-07-09T03:24:19;8;7;
55518;PMS5003;41724;51.176;-0.708;2022-07-09T03:26:46;6;6;
55518;PMS5003;41724;51.176;-0.708;2022-07-09T03:29:14;6;4;
55518;PMS5003;41724;51.176;-0.708;2022-07-09T03:31:41;8;7;
55518;PMS5003;41724;51.176;-0.708;2022-07-09T03:34:08;6;6;
55518;PMS5003;41724;51.176;-0.708;2022-07-09T03:36:36;7;6;
55518;PMS5003;41724;51.176;-0.708;2022-07-09T03:39:03;6;6;
55518;PMS5003;41724;51.176;-0.708;2022-07-09T03:41:30;5;5;
55518;PMS5003;41724;51.176;-0.708;2022-07-09T03:43:58;5;5;
55518;PMS5003;41724;51.176;-0.708;2022-07-09T03:46:25;5;5;
55518;PMS5003;41724;51.176;-0.708;2022-07-09T03:48:52;7;7;
55518;PMS5003;41724;51.176;-0.708;2022-07-09T03:51:20;7;6;
55518;PMS5003;41724;51.176;-0.708;2022-07-09T03:53:47;5;5;
55518;PMS5003;41724;51.176;-0.708;2022-07-09T03:56:14;5;5;
55518;PMS5003;41724;51.176;-0.708;2022-07-09T03:58:41;5;5;
55518;PMS5003;41724;51.176;-0.708;2022-07-09T04:01:09;6;6;
55518;PMS5003;41724;51.176;-0.708;2022-07-09T04:03:36;6;4;
55518;PMS5003;41724;51.176;-0.708;2022-07-09T04:06:03;8;7;
55518;PMS5003;41724;51.176;-0.708;2022-07-09T04:08:31;4;3;
55518;PMS5003;41724;51.176;-0.708;2022-07-09T04:10:58;7;5;
55518;PMS5003;41724;51.176;-0.708;2022-07-09T04:13:26;5;5;
55518;PMS5003;41724;51.176;-0.708;2022-07-09T04:15:54;5;5;
55518;PMS5003;41724;51.176;-0.708;2022-07-09T04:18:21;6;6;
55518;PMS5003;41724;51.176;-0.708;2022-07-09T04:20:48;5;4;
55518;PMS5003;41724;51.176;-0.708;2022-07-09T04:23:15;5;5;
55518;PMS5003;41724;51.176;-0.708;2022-07-09T04:25:43;4;4;
55518;PMS5003;41724;51.176;-0.708;2022-07-09T04:28:10;5;5;
55518;PMS5003;41724;51.176;-0.708;2022-07-09T04:30:37;4;4;
55518;PMS5003;41724;51.176;-0.708;2022-07-09T04:33:05;4;4;
55518;PMS5003;41724;51.176;-0.708;2022-07-09T04:35:32;4;4;
55518;PMS5003;41724;51.176;-0.708;2022-07-09T04:37:59;6;6;
55518;PMS5003;41724;51.176;-0.708;2022-07-09T04:40:27;4;4;
55518;PMS5003;41724;51.176;-0.708;2022-07-09T04:42:54;5;5;
55518;PMS5003;41724;51.176;-0.708;2022-07-09T04:45:21;4;4;
55518;PMS5003;41724;51.176;-0.708;2022-07-09T04:47:49;6;4;
55518;PMS5003;41724;51.176;-0.708;2022-07-09T04:50:16;8;5;
55518;PMS5003;41724;51.176;-0.708;2022-07-09T04:52:43;6;4;
55518;PMS5003;41724;51.176;-0.708;2022-07-09T04:55:10;5;5;
55518;PMS5003;41724;51.176;-0.708;2022-07-09T04:57:38;4;4;
55518;PMS5003;41724;51.176;-0.708;2022-07-09T05:00:06;4;4;
55518;PMS5003;41724;51.176;-0.708;2022-07-09T05:02:33;5;5;
55518;PMS5003;41724;51.176;-0.708;2022-07-09T05:05:01;4;4;
55518;PMS5003;41724;51.176;-0.708;2022-07-09T05:07:28;5;5;
55518;PMS5003;41724;51.176;-0.708;2022-07-09T05:09:55;6;5;
55518;PMS5003;41724;51.176;-0.708;2022-07-09T05:12:22;5;5;
55518;PMS5003;41724;51.176;-0.708;2022-07-09T05:14:50;4;4;
55518;PMS5003;41724;51.176;-0.708;2022-07-09T05:17:17;4;4;
55518;PMS5003;41724;51.176;-0.708;2022-07-09T05:19:44;4;4;
55518;PMS5003;41724;51.176;-0.708;2022-07-09T05:22:12;7;7;
55518;PMS5003;41724;51.176;-0.708;2022-07-09T05:24:39;4;4;
55518;PMS5003;41724;51.176;-0.708;2022-07-09T05:27:06;4;4;
55518;PMS5003;41724;51.176;-0.708;2022-07-09T05:29:34;4;4;
55518;PMS5003;41724;51.176;-0.708;2022-07-09T05:32:01;5;5;
55518;PMS5003;41724;51.176;-0.708;2022-07-09T05:34:28;5;5;
55518;PMS5003;41724;51.176;-0.708;2022-07-09T05:36:55;3;3;
55518;PMS5003;41724;51.176;-0.708;2022-07-09T05:39:23;3;3;
55518;PMS5003;41724;51.176;-0.708;2022-07-09T05:41:50;6;4;
55518;PMS5003;41724;51.176;-0.708;2022-07-09T05:44:17;3;3;
55518;PMS5003;41724;51.176;-0.708;2022-07-09T05:46:45;5;5;
55518;PMS5003;41724;51.176;-0.708;2022-07-09T05:49:12;6;6;
55518;PMS5003;41724;51.176;-0.708;2022-07-09T05:51:39;5;5;
55518;PMS5003;41724;51.176;-0.708;2022-07-09T05:54:06;5;5;
55518;PMS5003;41724;51.176;-0.708;2022-07-09T05:56:34;4;4;
55518;PMS5003;41724;51.176;-0.708;2022-07-09T05:59:01;4;4;
55518;PMS5003;41724;51.176;-0.708;2022-07-09T06:01:28;4;4;
55518;PMS5003;41724;51.176;-0.708;2022-07-09T06:03:56;4;4;
55518;PMS5003;41724;51.176;-0.708;2022-07-09T06:06:23;5;5;
55518;PMS5003;41724;51.176;-0.708;2022-07-09T06:08:51;3;3;
55518;PMS5003;41724;51.176;-0.708;2022-07-09T06:11:18;5;5;
55518;PMS5003;41724;51.176;-0.708;2022-07-09T06:13:46;4;4;
55518;PMS5003;41724;51.176;-0.708;2022-07-09T06:16:13;4;4;
55518;PMS5003;41724;51.176;-0.708;2022-07-09T06:18:40;5;5;
55518;PMS5003;41724;51.176;-0.708;2022-07-09T06:21:07;4;4;
55518;PMS5003;41724;51.176;-0.708;2022-07-09T06:23:35;5;4;
55518;PMS5003;41724;51.176;-0.708;2022-07-09T06:26:04;5;5;
55518;PMS5003;41724;51.176;-0.708;2022-07-09T06:28:32;5;5;
55518;PMS5003;41724;51.176;-0.708;2022-07-09T06:31:01;4;4;
55518;PMS5003;41724;51.176;-0.708;2022-07-09T06:33:29;4;4;
55518;PMS5003;41724;51.176;-0.708;2022-07-09T06:35:56;5;5;
55518;PMS5003;41724;51.176;-0.708;2022-07-09T06:38:23;4;4;
55518;PMS5003;41724;51.176;-0.708;2022-07-09T06:40:55;5;4;
55518;PMS5003;41724;51.176;-0.708;2022-07-09T06:43:22;4;4;
55518;PMS5003;41724;51.176;-0.708;2022-07-09T06:45:50;4;4;
55518;PMS5003;41724;51.176;-0.708;2022-07-09T06:48:17;5;5;
55518;PMS5003;41724;51.176;-0.708;2022-07-09T06:50:44;3;3;
55518;PMS5003;41724;51.176;-0.708;2022-07-09T06:53:11;4;4;
55518;PMS5003;41724;51.176;-0.708;2022-07-09T06:55:38;5;5;
55518;PMS5003;41724;51.176;-0.708;2022-07-09T06:58:06;5;4;
55518;PMS5003;41724;51.176;-0.708;2022-07-09T07:00:35;4;4;
55518;PMS5003;41724;51.176;-0.708;2022-07-09T07:03:02;5;5;
55518;PMS5003;41724;51.176;-0.708;2022-07-09T07:05:29;3;3;
55518;PMS5003;41724;51.176;-0.708;2022-07-09T07:07:57;6;4;
55518;PMS5003;41724;51.176;-0.708;2022-07-09T07:10:25;3;3;
55518;PMS5003;41724;51.176;-0.708;2022-07-09T07:12:53;3;3;
55518;PMS5003;41724;51.176;-0.708;2022-07-09T07:15:21;5;5;
55518;PMS5003;41724;51.176;-0.708;2022-07-09T07:17:48;5;5;
55518;PMS5003;41724;51.176;-0.708;2022-07-09T07:20:15;5;5;
55518;PMS5003;41724;51.176;-0.708;2022-07-09T07:22:43;5;5;
55518;PMS5003;41724;51.176;-0.708;2022-07-09T07:25:10;5;5;
55518;PMS5003;41724;51.176;-0.708;2022-07-09T07:27:37;5;5;
55518;PMS5003;41724;51.176;-0.708;2022-07-09T07:30:05;5;5;
55518;PMS5003;41724;51.176;-0.708;2022-07-09T07:32:33;6;5;
55518;PMS5003;41724;51.176;-0.708;2022-07-09T07:35:00;4;4;
55518;PMS5003;41724;51.176;-0.708;2022-07-09T07:37:27;3;3;
55518;PMS5003;41724;51.176;-0.708;2022-07-09T07:39:54;5;5;
55518;PMS5003;41724;51.176;-0.708;2022-07-09T07:42:22;6;5;
55518;PMS5003;41724;51.176;-0.708;2022-07-09T07:44:49;4;4;
55518;PMS5003;41724;51.176;-0.708;2022-07-09T07:47:17;7;7;
55518;PMS5003;41724;51.176;-0.708;2022-07-09T07:49:44;4;4;
55518;PMS5003;41724;51.176;-0.708;2022-07-09T07:52:11;4;3;
55518;PMS5003;41724;51.176;-0.708;2022-07-09T07:54:39;4;4;
55518;PMS5003;41724;51.176;-0.708;2022-07-09T07:57:06;4;4;
55518;PMS5003;41724;51.176;-0.708;2022-07-09T07:59:33;4;3;
55518;PMS5003;41724;51.176;-0.708;2022-07-09T08:02:01;4;4;
55518;PMS5003;41724;51.176;-0.708;2022-07-09T08:04:28;2;2;
55518;PMS5003;41724;51.176;-0.708;2022-07-09T08:06:55;3;3;
55518;PMS5003;41724;51.176;-0.708;2022-07-09T08:09:22;3;3;
55518;PMS5003;41724;51.176;-0.708;2022-07-09T08:11:50;4;3;
55518;PMS5003;41724;51.176;-0.708;2022-07-09T08:14:17;3;3;
55518;PMS5003;41724;51.176;-0.708;2022-07-09T08:16:44;2;2;
55518;PMS5003;41724;51.176;-0.708;2022-07-09T08:19:11;3;3;
55518;PMS5003;41724;51.176;-0.708;2022-07-09T08:21:39;3;3;
55518;PMS5003;41724;51.176;-0.708;2022-07-09T08:24:08;3;3;
55518;PMS5003;41724;51.176;-0.708;2022-07-09T08:26:35;2;2;
55518;PMS5003;41724;51.176;-0.708;2022-07-09T08:29:02;3;3;
55518;PMS5003;41724;51.176;-0.708;2022-07-09T08:31:30;4;4;
55518;PMS5003;41724;51.176;-0.708;2022-07-09T08:33:57;3;2;
55518;PMS5003;41724;51.176;-0.708;2022-07-09T08:36:24;3;3;
55518;PMS5003;41724;51.176;-0.708;2022-07-09T08:38:51;3;3;
55518;PMS5003;41724;51.176;-0.708;2022-07-09T08:41:18;2;2;
55518;PMS5003;41724;51.176;-0.708;2022-07-09T08:43:49;3;3;
55518;PMS5003;41724;51.176;-0.708;2022-07-09T08:46:17;4;4;
55518;PMS5003;41724;51.176;-0.708;2022-07-09T08:48:45;2;2;
55518;PMS5003;41724;51.176;-0.708;2022-07-09T08:51:14;3;3;
55518;PMS5003;41724;51.176;-0.708;2022-07-09T08:53:43;4;2;
55518;PMS5003;41724;51.176;-0.708;2022-07-09T08:56:12;2;2;
55518;PMS5003;41724;51.176;-0.708;2022-07-09T08:58:40;4;4;
55518;PMS5003;41724;51.176;-0.708;2022-07-09T09:01:09;3;3;
55518;PMS5003;41724;51.176;-0.708;2022-07-09T09:03:40;3;3;
55518;PMS5003;41724;51.176;-0.708;2022-07-09T09:06:08;2;2;
55518;PMS5003;41724;51.176;-0.708;2022-07-09T09:08:38;3;3;
55518;PMS5003;41724;51.176;-0.708;2022-07-09T09:11:07;3;2;
55518;PMS5003;41724;51.176;-0.708;2022-07-09T09:13:40;4;4;
55518;PMS5003;41724;51.176;-0.708;2022-07-09T09:16:07;2;2;
55518;PMS5003;41724;51.176;-0.708;2022-07-09T09:18:35;5;5;
55518;PMS5003;41724;51.176;-0.708;2022-07-09T09:21:04;4;4;
55518;PMS5003;41724;51.176;-0.708;2022-07-09T09:23:41;3;3;
55518;PMS5003;41724;51.176;-0.708;2022-07-09T09:26:11;3;3;
55518;PMS5003;41724;51.176;-0.708;2022-07-09T09:28:46;5;4;
55518;PMS5003;41724;51.176;-0.708;2022-07-09T09:31:22;3;3;
55518;PMS5003;41724;51.176;-0.708;2022-07-09T09:33:51;3;3;
55518;PMS5003;41724;51.176;-0.708;2022-07-09T09:36:29;1;1;
55518;PMS5003;41724;51.176;-0.708;2022-07-09T09:39:14;5;5;
55518;PMS5003;41724;51.176;-0.708;2022-07-09T09:41:43;2;2;
55518;PMS5003;41724;51.176;-0.708;2022-07-09T09:44:12;3;3;
55518;PMS5003;41724;51.176;-0.708;2022-07-09T09:46:42;3;3;
55518;PMS5003;41724;51.176;-0.708;2022-07-09T09:49:11;3;3;
55518;PMS5003;41724;51.176;-0.708;2022-07-09T09:51:44;4;4;
55518;PMS5003;41724;51.176;-0.708;2022-07-09T09:54:13;2;2;
55518;PMS5003;41724;51.176;-0.708;2022-07-09T09:56:41;2;2;
55518;PMS5003;41724;51.176;-0.708;2022-07-09T09:59:10;3;3;
55518;PMS5003;41724;51.176;-0.708;2022-07-09T10:01:38;3;3;
55518;PMS5003;41724;51.176;-0.708;2022-07-09T10:04:07;4;4;
55518;PMS5003;41724;51.176;-0.708;2022-07-09T10:06:35;2;2;
55518;PMS5003;41724;51.176;-0.708;2022-07-09T10:09:04;6;4;
55518;PMS5003;41724;51.176;-0.708;2022-07-09T10:11:40;4;4;
55518;PMS5003;41724;51.176;-0.708;2022-07-09T10:14:15;3;3;
55518;PMS5003;41724;51.176;-0.708;2022-07-09T10:16:43;5;5;
55518;PMS5003;41724;51.176;-0.708;2022-07-09T10:19:20;3;3;
55518;PMS5003;41724;51.176;-0.708;2022-07-09T10:21:51;2;2;
55518;PMS5003;41724;51.176;-0.708;2022-07-09T10:24:25;3;3;
55518;PMS5003;41724;51.176;-0.708;2022-07-09T10:27:03;3;3;
55518;PMS5003;41724;51.176;-0.708;2022-07-09T10:29:32;3;3;
55518;PMS5003;41724;51.176;-0.708;2022-07-09T10:32:00;1;1;
55518;PMS5003;41724;51.176;-0.708;2022-07-09T10:34:38;1;1;
55518;PMS5003;41724;51.176;-0.708;2022-07-09T10:37:16;1;1;
55518;PMS5003;41724;51.176;-0.708;2022-07-09T10:39:52;2;2;
55518;PMS5003;41724;51.176;-0.708;2022-07-09T10:42:20;2;2;
55518;PMS5003;41724;51.176;-0.708;2022-07-09T10:44:49;2;2;
55518;PMS5003;41724;51.176;-0.708;2022-07-09T10:47:17;3;3;
55518;PMS5003;41724;51.176;-0.708;2022-07-09T10:49:44;2;2;
55518;PMS5003;41724;51.176;-0.708;2022-07-09T10:52:11;3;3;
55518;PMS5003;41724;51.176;-0.708;2022-07-09T10:54:46;2;2;
55518;PMS5003;41724;51.176;-0.708;2022-07-09T10:57:14;3;3;
55518;PMS5003;41724;51.176;-0.708;2022-07-09T10:59:45;2;2;
55518;PMS5003;41724;51.176;-0.708;2022-07-09T11:02:17;2;2;
55518;PMS5003;41724;51.176;-0.708;2022-07-09T11:04:47;1;1;
55518;PMS5003;41724;51.176;-0.708;2022-07-09T11:07:18;2;2;
55518;PMS5003;41724;51.176;-0.708;2022-07-09T11:09:47;2;2;
55518;PMS5003;41724;51.176;-0.708;2022-07-09T11:12:15;2;2;
55518;PMS5003;41724;51.176;-0.708;2022-07-09T11:14:43;2;2;
55518;PMS5003;41724;51.176;-0.708;2022-07-09T11:17:15;3;3;
55518;PMS5003;41724;51.176;-0.708;2022-07-09T11:19:43;3;3;
55518;PMS5003;41724;51.176;-0.708;2022-07-09T11:22:10;3;3;
55518;PMS5003;41724;51.176;-0.708;2022-07-09T11:24:37;2;2;
55518;PMS5003;41724;51.176;-0.708;2022-07-09T11:27:05;3;3;
55518;PMS5003;41724;51.176;-0.708;2022-07-09T11:29:34;3;3;
55518;PMS5003;41724;51.176;-0.708;2022-07-09T11:32:02;3;1;
55518;PMS5003;41724;51.176;-0.708;2022-07-09T11:34:30;4;4;
55518;PMS5003;41724;51.176;-0.708;2022-07-09T11:36:58;3;3;
55518;PMS5003;41724;51.176;-0.708;2022-07-09T11:39:26;2;2;
55518;PMS5003;41724;51.176;-0.708;2022-07-09T11:41:54;3;3;
55518;PMS5003;41724;51.176;-0.708;2022-07-09T11:44:23;3;3;
55518;PMS5003;41724;51.176;-0.708;2022-07-09T11:47:07;2;2;
55518;PMS5003;41724;51.176;-0.708;2022-07-09T11:49:37;3;3;
55518;PMS5003;41724;51.176;-0.708;2022-07-09T11:52:15;3;3;
55518;PMS5003;41724;51.176;-0.708;2022-07-09T11:55:00;1;1;
55518;PMS5003;41724;51.176;-0.708;2022-07-09T11:57:29;3;2;
55518;PMS5003;41724;51.176;-0.708;2022-07-09T11:59:58;2;2;
55518;PMS5003;41724;51.176;-0.708;2022-07-09T12:02:26;3;3;
55518;PMS5003;41724;51.176;-0.708;2022-07-09T12:04:56;3;3;
55518;PMS5003;41724;51.176;-0.708;2022-07-09T12:07:23;3;3;
55518;PMS5003;41724;51.176;-0.708;2022-07-09T12:09:58;3;2;
55518;PMS5003;41724;51.176;-0.708;2022-07-09T12:12:27;2;2;
55518;PMS5003;41724;51.176;-0.708;2022-07-09T12:14:54;2;2;
55518;PMS5003;41724;51.176;-0.708;2022-07-09T12:17:23;3;3;
55518;PMS5003;41724;51.176;-0.708;2022-07-09T12:19:51;3;3;
55518;PMS5003;41724;51.176;-0.708;2022-07-09T12:22:19;2;2;
55518;PMS5003;41724;51.176;-0.708;2022-07-09T12:24:47;3;3;
55518;PMS5003;41724;51.176;-0.708;2022-07-09T12:27:14;4;4;
55518;PMS5003;41724;51.176;-0.708;2022-07-09T12:29:41;2;2;
55518;PMS5003;41724;51.176;-0.708;2022-07-09T12:32:09;2;2;
55518;PMS5003;41724;51.176;-0.708;2022-07-09T12:34:36;4;3;
55518;PMS5003;41724;51.176;-0.708;2022-07-09T12:37:03;3;3;
55518;PMS5003;41724;51.176;-0.708;2022-07-09T12:39:30;3;3;
55518;PMS5003;41724;51.176;-0.708;2022-07-09T12:41:58;3;3;
55518;PMS5003;41724;51.176;-0.708;2022-07-09T12:44:25;4;4;
55518;PMS5003;41724;51.176;-0.708;2022-07-09T12:46:53;3;3;
55518;PMS5003;41724;51.176;-0.708;2022-07-09T12:49:20;2;2;
55518;PMS5003;41724;51.176;-0.708;2022-07-09T12:51:47;2;2;
55518;PMS5003;41724;51.176;-0.708;2022-07-09T12:54:15;3;3;
55518;PMS5003;41724;51.176;-0.708;2022-07-09T12:56:42;4;4;
55518;PMS5003;41724;51.176;-0.708;2022-07-09T12:59:09;3;3;
55518;PMS5003;41724;51.176;-0.708;2022-07-09T13:01:36;3;3;
55518;PMS5003;41724;51.176;-0.708;2022-07-09T13:04:04;3;3;
55518;PMS5003;41724;51.176;-0.708;2022-07-09T13:06:31;4;2;
55518;PMS5003;41724;51.176;-0.708;2022-07-09T13:08:58;4;4;
55518;PMS5003;41724;51.176;-0.708;2022-07-09T13:11:26;3;3;
55518;PMS5003;41724;51.176;-0.708;2022-07-09T13:13:54;2;2;
55518;PMS5003;41724;51.176;-0.708;2022-07-09T13:16:22;2;2;
55518;PMS5003;41724;51.176;-0.708;2022-07-09T13:18:49;2;2;
55518;PMS5003;41724;51.176;-0.708;2022-07-09T13:21:17;3;3;
55518;PMS5003;41724;51.176;-0.708;2022-07-09T13:23:44;2;2;
55518;PMS5003;41724;51.176;-0.708;2022-07-09T13:26:11;3;3;
55518;PMS5003;41724;51.176;-0.708;2022-07-09T13:28:39;2;2;
55518;PMS5003;41724;51.176;-0.708;2022-07-09T13:31:06;2;2;
55518;PMS5003;41724;51.176;-0.708;2022-07-09T13:33:34;3;3;
55518;PMS5003;41724;51.176;-0.708;2022-07-09T13:36:03;2;2;
55518;PMS5003;41724;51.176;-0.708;2022-07-09T13:38:32;1;1;
55518;PMS5003;41724;51.176;-0.708;2022-07-09T13:40:59;2;2;
55518;PMS5003;41724;51.176;-0.708;2022-07-09T13:43:27;3;3;
55518;PMS5003;41724;51.176;-0.708;2022-07-09T13:45:55;4;4;
55518;PMS5003;41724;51.176;-0.708;2022-07-09T13:48:24;4;4;
55518;PMS5003;41724;51.176;-0.708;2022-07-09T13:50:52;3;3;
55518;PMS5003;41724;51.176;-0.708;2022-07-09T13:53:19;4;4;
55518;PMS5003;41724;51.176;-0.708;2022-07-09T13:55:46;5;5;
55518;PMS5003;41724;51.176;-0.708;2022-07-09T13:58:14;4;4;
55518;PMS5003;41724;51.176;-0.708;2022-07-09T14:00:41;2;2;
55518;PMS5003;41724;51.176;-0.708;2022-07-09T14:03:08;2;2;
55518;PMS5003;41724;51.176;-0.708;2022-07-09T14:05:36;4;4;
55518;PMS5003;41724;51.176;-0.708;2022-07-09T14:08:04;2;2;
55518;PMS5003;41724;51.176;-0.708;2022-07-09T14:10:35;3;3;
55518;PMS5003;41724;51.176;-0.708;2022-07-09T14:13:02;2;2;
55518;PMS5003;41724;51.176;-0.708;2022-07-09T14:15:29;4;3;
55518;PMS5003;41724;51.176;-0.708;2022-07-09T14:17:56;5;5;
55518;PMS5003;41724;51.176;-0.708;2022-07-09T14:20:24;3;3;
55518;PMS5003;41724;51.176;-0.708;2022-07-09T14:22:51;1;1;
55518;PMS5003;41724;51.176;-0.708;2022-07-09T14:25:18;2;2;
55518;PMS5003;41724;51.176;-0.708;2022-07-09T14:27:46;4;4;
55518;PMS5003;41724;51.176;-0.708;2022-07-09T14:30:13;4;3;
55518;PMS5003;41724;51.176;-0.708;2022-07-09T14:32:40;3;3;
55518;PMS5003;41724;51.176;-0.708;2022-07-09T14:35:08;3;3;
55518;PMS5003;41724;51.176;-0.708;2022-07-09T14:37:35;3;3;
55518;PMS5003;41724;51.176;-0.708;2022-07-09T14:40:03;2;2;
55518;PMS5003;41724;51.176;-0.708;2022-07-09T14:42:30;5;2;
55518;PMS5003;41724;51.176;-0.708;2022-07-09T14:44:58;3;3;
55518;PMS5003;41724;51.176;-0.708;2022-07-09T14:47:27;4;4;
55518;PMS5003;41724;51.176;-0.708;2022-07-09T14:49:56;4;4;
55518;PMS5003;41724;51.176;-0.708;2022-07-09T14:52:23;3;3;
55518;PMS5003;41724;51.176;-0.708;2022-07-09T14:54:51;3;3;
55518;PMS5003;41724;51.176;-0.708;2022-07-09T14:57:18;3;3;
55518;PMS5003;41724;51.176;-0.708;2022-07-09T14:59:45;3;2;
55518;PMS5003;41724;51.176;-0.708;2022-07-09T15:02:13;3;3;
55518;PMS5003;41724;51.176;-0.708;2022-07-09T15:04:40;4;4;
55518;PMS5003;41724;51.176;-0.708;2022-07-09T15:07:08;3;3;
55518;PMS5003;41724;51.176;-0.708;2022-07-09T15:09:35;5;5;
55518;PMS5003;41724;51.176;-0.708;2022-07-09T15:12:02;5;5;
55518;PMS5003;41724;51.176;-0.708;2022-07-09T15:14:29;5;5;
55518;PMS5003;41724;51.176;-0.708;2022-07-09T15:16:57;5;5;
55518;PMS5003;41724;51.176;-0.708;2022-07-09T15:19:24;4;4;
55518;PMS5003;41724;51.176;-0.708;2022-07-09T15:21:52;5;4;
55518;PMS5003;41724;51.176;-0.708;2022-07-09T15:24:20;4;4;
55518;PMS5003;41724;51.176;-0.708;2022-07-09T15:26:47;4;4;
55518;PMS5003;41724;51.176;-0.708;2022-07-09T15:29:15;4;4;
55518;PMS5003;41724;51.176;-0.708;2022-07-09T15:31:42;4;4;
55518;PMS5003;41724;51.176;-0.708;2022-07-09T15:34:09;6;5;
55518;PMS5003;41724;51.176;-0.708;2022-07-09T15:36:36;4;4;
55518;PMS5003;41724;51.176;-0.708;2022-07-09T15:39:04;5;5;
55518;PMS5003;41724;51.176;-0.708;2022-07-09T15:41:31;4;4;
55518;PMS5003;41724;51.176;-0.708;2022-07-09T15:43:59;5;5;
55518;PMS5003;41724;51.176;-0.708;2022-07-09T15:46:26;4;4;
55518;PMS5003;41724;51.176;-0.708;2022-07-09T15:48:53;5;5;
55518;PMS5003;41724;51.176;-0.708;2022-07-09T15:51:20;4;4;
55518;PMS5003;41724;51.176;-0.708;2022-07-09T15:53:48;3;3;
55518;PMS5003;41724;51.176;-0.708;2022-07-09T15:56:15;2;2;
55518;PMS5003;41724;51.176;-0.708;2022-07-09T15:58:42;3;3;
55518;PMS5003;41724;51.176;-0.708;2022-07-09T16:01:10;3;3;
55518;PMS5003;41724;51.176;-0.708;2022-07-09T16:03:37;4;4;
55518;PMS5003;41724;51.176;-0.708;2022-07-09T16:06:05;5;5;
55518;PMS5003;41724;51.176;-0.708;2022-07-09T16:08:33;4;4;
55518;PMS5003;41724;51.176;-0.708;2022-07-09T16:11:00;5;5;
55518;PMS5003;41724;51.176;-0.708;2022-07-09T16:13:28;4;4;
55518;PMS5003;41724;51.176;-0.708;2022-07-09T16:15:55;6;6;
55518;PMS5003;41724;51.176;-0.708;2022-07-09T16:18:23;8;8;
55518;PMS5003;41724;51.176;-0.708;2022-07-09T16:20:50;6;6;
55518;PMS5003;41724;51.176;-0.708;2022-07-09T16:23:17;6;6;
55518;PMS5003;41724;51.176;-0.708;2022-07-09T16:25:44;7;6;
55518;PMS5003;41724;51.176;-0.708;2022-07-09T16:28:12;5;3;
55518;PMS5003;41724;51.176;-0.708;2022-07-09T16:30:39;4;4;
55518;PMS5003;41724;51.176;-0.708;2022-07-09T16:33:06;3;3;
55518;PMS5003;41724;51.176;-0.708;2022-07-09T16:35:34;1;1;
55518;PMS5003;41724;51.176;-0.708;2022-07-09T16:38:01;3;2;